createdAt,value
2023-03-05T00:01:27.995Z,24.90
2023-03-05T00:03:57.314Z,24.80
2023-03-05T00:06:28.073Z,24.80
2023-03-05T00:08:58.561Z,24.80
2023-03-05T00:11:30.331Z,24.80
2023-03-05T00:13:59.623Z,24.80
2023-03-05T00:16:28.976Z,24.80
2023-03-05T00:18:59.135Z,24.80
2023-03-05T00:21:31.313Z,24.80
2023-03-05T00:24:03.792Z,24.80
2023-03-05T00:26:34.676Z,24.80
2023-03-05T00:29:02.686Z,24.80
2023-03-05T00:31:34.427Z,24.80
2023-03-05T00:34:08.107Z,24.90
2023-03-05T00:36:39.193Z,24.80
2023-03-05T00:39:08.481Z,24.80
2023-03-05T00:41:36.310Z,24.80
2023-03-05T00:44:04.462Z,24.80
2023-03-05T00:46:33.031Z,24.80
2023-03-05T00:49:01.017Z,24.80
2023-03-05T00:51:29.164Z,24.80
2023-03-05T00:53:57.062Z,24.80
2023-03-05T00:56:25.008Z,24.80
2023-03-05T00:58:53.554Z,24.80
2023-03-05T01:01:21.636Z,24.80
2023-03-05T01:03:49.441Z,24.80
2023-03-05T01:06:17.540Z,24.80
2023-03-05T01:08:46.177Z,24.80
2023-03-05T01:11:14.995Z,24.80
2023-03-05T01:13:42.759Z,24.80
2023-03-05T01:16:10.796Z,24.80
2023-03-05T01:18:40.337Z,24.80
2023-03-05T01:21:08.693Z,24.80
2023-03-05T01:23:37.623Z,24.80
2023-03-05T01:26:06.604Z,24.80
2023-03-05T01:28:35.372Z,24.80
2023-03-05T01:31:06.646Z,24.80
2023-03-05T01:33:34.452Z,24.80
2023-03-05T01:36:02.332Z,24.80
2023-03-05T01:38:30.104Z,24.80
2023-03-05T01:40:57.984Z,24.80
2023-03-05T01:43:28.677Z,24.80
2023-03-05T01:46:27.674Z,24.80
2023-03-05T01:49:12.970Z,24.80
2023-03-05T01:52:07.555Z,24.80
2023-03-05T01:55:00.130Z,24.80
2023-03-05T01:57:38.313Z,24.80
2023-03-05T02:00:17.001Z,24.80
2023-03-05T02:02:47.409Z,24.80
2023-03-05T02:05:29.172Z,24.80
2023-03-05T02:07:59.091Z,24.80
2023-03-05T02:10:31.076Z,24.80
2023-03-05T02:13:02.579Z,24.80
2023-03-05T02:15:31.180Z,24.80
2023-03-05T02:17:59.430Z,24.80
2023-03-05T02:20:30.462Z,24.80
2023-03-05T02:22:58.460Z,24.80
2023-03-05T02:25:28.694Z,24.80
2023-03-05T02:28:05.384Z,24.80
2023-03-05T02:30:33.642Z,24.80
2023-03-05T02:33:01.666Z,24.80
2023-03-05T02:35:29.663Z,24.80
2023-03-05T02:37:58.323Z,24.80
2023-03-05T02:40:26.229Z,24.80
2023-03-05T02:42:54.163Z,24.80
2023-03-05T02:45:22.321Z,24.80
2023-03-05T02:47:50.089Z,24.80
2023-03-05T02:50:18.032Z,24.80
2023-03-05T02:52:45.960Z,24.80
2023-03-05T02:55:15.894Z,24.80
2023-03-05T02:57:45.387Z,24.80
2023-03-05T03:00:13.788Z,24.80
2023-03-05T03:02:41.589Z,24.80
2023-03-05T03:05:10.074Z,24.80
2023-03-05T03:07:38.178Z,24.80
2023-03-05T03:10:06.847Z,24.80
2023-03-05T03:12:41.821Z,24.80
2023-03-05T03:15:11.442Z,24.80
2023-03-05T03:17:39.475Z,24.80
2023-03-05T03:20:11.088Z,24.80
2023-03-05T03:22:38.879Z,24.70
2023-03-05T03:25:07.442Z,24.70
2023-03-05T03:27:35.243Z,24.70
2023-03-05T03:30:05.045Z,24.70
2023-03-05T03:32:33.895Z,24.70
2023-03-05T03:35:02.638Z,24.70
2023-03-05T03:37:30.817Z,24.70
2023-03-05T03:39:58.546Z,24.80
2023-03-05T03:42:26.468Z,24.70
2023-03-05T03:44:54.762Z,24.70
2023-03-05T03:47:22.595Z,24.70
2023-03-05T03:49:53.676Z,24.80
2023-03-05T03:52:23.073Z,24.70
2023-03-05T03:54:53.214Z,24.70
2023-03-05T03:57:21.323Z,24.70
2023-03-05T03:59:50.560Z,24.70
2023-03-05T04:02:18.777Z,24.70
2023-03-05T04:04:46.611Z,24.70
2023-03-05T04:07:14.484Z,24.70
2023-03-05T04:09:42.209Z,24.70
2023-03-05T04:12:10.293Z,24.70
2023-03-05T04:14:38.692Z,24.70
2023-03-05T04:17:06.526Z,24.70
2023-03-05T04:19:34.616Z,24.70
2023-03-05T04:22:02.512Z,24.70
2023-03-05T04:24:30.260Z,24.70
2023-03-05T04:26:58.147Z,24.70
2023-03-05T04:29:26.262Z,24.60
2023-03-05T04:31:56.337Z,24.60
2023-03-05T04:34:24.590Z,24.60
2023-03-05T04:36:52.430Z,24.60
2023-03-05T04:39:21.185Z,24.60
2023-03-05T04:41:48.989Z,24.70
2023-03-05T04:44:17.975Z,24.60
2023-03-05T04:46:46.273Z,24.60
2023-03-05T04:49:14.175Z,24.60
2023-03-05T04:51:42.294Z,24.60
2023-03-05T04:54:10.162Z,24.60
2023-03-05T04:56:37.943Z,24.60
2023-03-05T04:59:05.792Z,24.60
2023-03-05T05:01:35.533Z,24.60
2023-03-05T05:04:03.413Z,24.60
2023-03-05T05:06:31.416Z,24.60
2023-03-05T05:08:59.250Z,24.60
2023-03-05T05:11:27.137Z,24.60
2023-03-05T05:13:54.995Z,24.60
2023-03-05T05:16:22.896Z,24.50
2023-03-05T05:18:50.663Z,24.50
2023-03-05T05:21:22.981Z,24.50
2023-03-05T05:23:50.854Z,24.50
2023-03-05T05:26:18.713Z,24.60
2023-03-05T05:28:46.599Z,24.50
2023-03-05T05:31:15.938Z,24.50
2023-03-05T05:33:43.872Z,24.50
2023-03-05T05:36:15.012Z,24.50
2023-03-05T05:38:43.000Z,24.50
2023-03-05T05:41:13.720Z,24.50
2023-03-05T05:43:42.203Z,24.50
2023-03-05T05:46:14.879Z,24.50
2023-03-05T05:48:44.208Z,24.50
2023-03-05T05:51:23.195Z,24.50
2023-03-05T05:53:51.117Z,24.50
2023-03-05T05:56:20.112Z,24.50
2023-03-05T05:58:48.889Z,24.50
2023-03-05T06:01:37.141Z,24.50
2023-03-05T06:04:05.017Z,24.50
2023-03-05T06:06:35.135Z,24.50
2023-03-05T06:09:03.769Z,24.50
2023-03-05T06:11:32.298Z,24.50
2023-03-05T06:14:02.778Z,24.50
2023-03-05T06:16:30.967Z,24.50
2023-03-05T06:18:59.139Z,24.50
2023-03-05T06:21:26.891Z,24.50
2023-03-05T06:23:55.068Z,24.50
2023-03-05T06:26:23.209Z,24.50
2023-03-05T06:28:52.149Z,24.50
2023-03-05T06:31:22.942Z,24.50
2023-03-05T06:33:51.042Z,24.50
2023-03-05T06:36:21.171Z,24.50
2023-03-05T06:38:51.546Z,24.50
2023-03-05T06:41:23.391Z,24.40
2023-03-05T06:43:51.137Z,24.50
2023-03-05T06:46:25.028Z,24.50
2023-03-05T06:48:57.136Z,24.50
2023-03-05T06:51:30.461Z,24.50
2023-03-05T06:54:01.982Z,24.50
2023-03-05T06:56:30.041Z,24.50
2023-03-05T06:58:58.200Z,24.50
2023-03-05T07:01:26.314Z,24.40
2023-03-05T07:03:55.710Z,24.50
2023-03-05T07:06:23.645Z,24.40
2023-03-05T07:08:51.368Z,24.50
2023-03-05T07:11:21.011Z,24.40
2023-03-05T07:13:49.817Z,24.40
2023-03-05T07:16:24.119Z,24.50
2023-03-05T07:18:52.616Z,24.50
2023-03-05T07:21:25.720Z,24.50
2023-03-05T07:23:54.846Z,24.50
2023-03-05T07:26:23.517Z,24.40
2023-03-05T07:28:51.682Z,24.40
2023-03-05T07:31:22.722Z,24.50
2023-03-05T07:33:51.040Z,24.40
2023-03-05T07:36:19.308Z,24.40
2023-03-05T07:38:47.237Z,24.40
2023-03-05T07:41:19.933Z,24.40
2023-03-05T07:43:50.200Z,24.40
2023-03-05T07:46:20.449Z,24.40
2023-03-05T07:48:48.630Z,24.40
2023-03-05T07:51:20.129Z,24.40
2023-03-05T07:53:49.996Z,24.40
2023-03-05T07:56:32.154Z,24.40
2023-03-05T07:59:01.451Z,24.40
2023-03-05T08:01:31.988Z,24.50
2023-03-05T08:03:59.904Z,24.40
2023-03-05T08:06:28.238Z,24.40
2023-03-05T08:08:56.211Z,24.40
2023-03-05T08:11:24.345Z,24.40
2023-03-05T08:13:52.138Z,24.40
2023-03-05T08:16:21.835Z,24.40
2023-03-05T08:18:49.814Z,24.40
2023-03-05T08:21:18.698Z,24.40
2023-03-05T08:23:47.346Z,24.40
2023-03-05T08:26:18.078Z,24.40
2023-03-05T08:28:46.598Z,24.40
2023-03-05T08:31:16.825Z,24.40
2023-03-05T08:33:45.434Z,24.40
2023-03-05T08:36:13.557Z,24.40
2023-03-05T08:38:42.202Z,24.40
2023-03-05T08:41:10.604Z,24.40
2023-03-05T08:43:39.481Z,24.40
2023-03-05T08:46:07.945Z,24.40
2023-03-05T08:48:35.826Z,24.40
2023-03-05T08:51:15.694Z,24.40
2023-03-05T08:53:45.183Z,24.40
2023-03-05T08:56:14.747Z,24.50
2023-03-05T08:58:42.806Z,24.50
2023-03-05T09:01:11.349Z,24.40
2023-03-05T09:03:40.312Z,24.50
2023-03-05T09:06:10.434Z,24.50
2023-03-05T09:08:38.646Z,24.50
2023-03-05T09:11:09.082Z,24.50
2023-03-05T09:13:36.962Z,24.50
2023-03-05T09:16:07.589Z,24.50
2023-03-05T09:18:36.976Z,24.50
2023-03-05T09:21:07.342Z,24.50
2023-03-05T09:23:35.545Z,24.50
2023-03-05T09:26:06.613Z,24.50
2023-03-05T09:28:34.887Z,24.50
2023-03-05T09:31:05.170Z,24.50
2023-03-05T09:33:35.000Z,24.50
2023-03-05T09:36:03.720Z,24.40
2023-03-05T09:38:32.257Z,24.50
2023-03-05T09:41:08.090Z,24.40
2023-03-05T09:43:52.764Z,24.50
2023-03-05T09:46:36.841Z,24.50
2023-03-05T09:49:10.942Z,24.50
2023-03-05T09:51:42.239Z,24.50
2023-03-05T09:54:19.031Z,24.50
2023-03-05T09:56:51.515Z,24.50
2023-03-05T09:59:28.788Z,24.50
2023-03-05T10:02:03.978Z,24.50
2023-03-05T10:04:50.441Z,24.50
2023-03-05T10:07:43.788Z,24.50
2023-03-05T10:10:18.488Z,24.50
2023-03-05T10:12:51.323Z,24.50
2023-03-05T10:15:51.801Z,24.50
2023-03-05T10:18:26.126Z,24.50
2023-03-05T10:21:25.882Z,24.60
2023-03-05T10:24:41.885Z,24.50
2023-03-05T10:27:19.927Z,24.50
2023-03-05T10:29:53.965Z,24.60
2023-03-05T10:32:52.030Z,24.60
2023-03-05T10:35:21.286Z,24.50
2023-03-05T10:38:15.530Z,24.50
2023-03-05T10:40:54.774Z,24.60
2023-03-05T10:43:31.962Z,24.60
2023-03-05T10:46:03.215Z,24.50
2023-03-05T10:48:46.772Z,24.60
2023-03-05T10:51:48.211Z,24.60
2023-03-05T10:54:31.096Z,24.60
2023-03-05T10:57:19.997Z,24.60
2023-03-05T10:59:54.294Z,24.60
2023-03-05T11:02:23.731Z,24.60
2023-03-05T11:04:53.027Z,24.60
2023-03-05T11:07:22.889Z,24.60
2023-03-05T11:10:17.063Z,24.60
2023-03-05T11:12:45.856Z,24.60
2023-03-05T11:15:14.204Z,24.60
2023-03-05T11:18:19.807Z,24.60
2023-03-05T11:20:48.836Z,24.60
2023-03-05T11:23:24.613Z,24.60
2023-03-05T11:25:59.155Z,24.60
2023-03-05T11:28:33.438Z,24.60
2023-03-05T11:31:16.350Z,24.60
2023-03-05T11:34:01.404Z,24.60
2023-03-05T11:36:42.212Z,24.60
2023-03-05T11:39:16.550Z,24.60
2023-03-05T11:41:53.367Z,24.60
2023-03-05T11:44:34.567Z,24.60
2023-03-05T11:47:40.842Z,24.70
2023-03-05T11:50:25.810Z,24.60
2023-03-05T11:53:12.389Z,24.70
2023-03-05T11:55:51.168Z,24.60
2023-03-05T11:58:42.390Z,24.60
2023-03-05T12:01:21.504Z,24.70
2023-03-05T12:03:51.364Z,24.70
2023-03-05T12:06:42.390Z,24.70
2023-03-05T12:09:18.912Z,24.60
2023-03-05T12:11:51.849Z,24.60
2023-03-05T12:14:25.993Z,24.70
2023-03-05T12:17:28.316Z,24.70
2023-03-05T12:20:06.574Z,24.60
2023-03-05T12:22:38.633Z,24.60
2023-03-05T12:25:31.646Z,24.70
2023-03-05T12:28:01.245Z,24.60
2023-03-05T12:30:35.754Z,24.70
2023-03-05T12:33:05.809Z,24.60
2023-03-05T12:35:37.492Z,24.60
2023-03-05T12:38:29.096Z,24.60
2023-03-05T12:41:27.494Z,24.60
2023-03-05T12:44:08.053Z,24.70
2023-03-05T12:46:39.997Z,24.60
2023-03-05T12:49:28.311Z,24.70
2023-03-05T12:52:01.726Z,24.70
2023-03-05T12:54:40.129Z,24.70
2023-03-05T12:57:27.009Z,24.60
2023-03-05T13:00:05.817Z,24.70
2023-03-05T13:02:49.097Z,24.60
2023-03-05T13:05:33.663Z,24.70
2023-03-05T13:08:23.636Z,24.60
2023-03-05T13:11:01.904Z,24.70
2023-03-05T13:13:52.285Z,24.70
2023-03-05T13:16:27.283Z,24.60
2023-03-05T13:19:01.724Z,24.60
2023-03-05T13:21:32.359Z,24.60
2023-03-05T13:24:03.477Z,24.60
2023-03-05T13:26:40.124Z,24.60
2023-03-05T13:29:15.968Z,24.60
2023-03-05T13:31:52.342Z,24.60
2023-03-05T13:34:44.623Z,24.60
2023-03-05T13:37:23.081Z,24.60
2023-03-05T13:39:52.842Z,24.60
2023-03-05T13:42:32.700Z,24.60
2023-03-05T13:45:04.129Z,24.60
2023-03-05T13:47:34.997Z,24.60
2023-03-05T13:50:09.153Z,24.60
2023-03-05T13:52:39.234Z,24.60
2023-03-05T13:55:16.975Z,24.60
2023-03-05T13:57:50.214Z,24.60
2023-03-05T14:00:39.395Z,24.60
2023-03-05T14:03:21.246Z,24.50
2023-03-05T14:05:53.073Z,24.50
2023-03-05T14:08:25.075Z,24.60
2023-03-05T14:10:57.812Z,24.50
2023-03-05T14:13:28.139Z,24.60
2023-03-05T14:16:13.138Z,24.50
2023-03-05T14:18:54.997Z,24.50
2023-03-05T14:21:23.716Z,24.50
2023-03-05T14:23:55.356Z,24.50
2023-03-05T14:26:29.315Z,24.50
2023-03-05T14:29:02.915Z,24.50
2023-03-05T14:31:37.075Z,24.50
2023-03-05T14:34:07.715Z,24.50
2023-03-05T14:36:36.596Z,24.50
2023-03-05T14:39:05.716Z,24.50
2023-03-05T14:41:43.327Z,24.50
2023-03-05T14:44:19.884Z,24.50
2023-03-05T14:46:51.664Z,24.50
2023-03-05T14:49:20.210Z,24.50
2023-03-05T14:51:48.521Z,24.50
2023-03-05T14:54:26.448Z,24.50
2023-03-05T14:56:54.761Z,24.50
2023-03-05T14:59:23.005Z,24.50
2023-03-05T15:01:51.438Z,24.50
2023-03-05T15:04:20.412Z,24.50
2023-03-05T15:06:51.482Z,24.50
2023-03-05T15:09:21.472Z,24.50
2023-03-05T15:11:49.975Z,24.50
2023-03-05T15:14:18.357Z,24.50
2023-03-05T15:21:18.677Z,24.50
2023-03-05T15:23:46.917Z,24.40
2023-03-05T15:26:16.275Z,24.40
2023-03-05T15:28:44.757Z,24.40
2023-03-05T15:31:13.144Z,24.40
2023-03-05T15:33:42.116Z,24.50
2023-03-05T15:36:10.600Z,24.40
2023-03-05T15:38:39.261Z,24.40
2023-03-05T15:41:07.968Z,24.40
2023-03-05T15:43:37.888Z,24.40
2023-03-05T15:46:07.471Z,24.40
2023-03-05T15:48:35.718Z,24.40
2023-03-05T15:51:07.564Z,24.40
2023-03-05T15:53:36.276Z,24.40
2023-03-05T15:56:04.598Z,24.40
2023-03-05T15:58:32.996Z,24.40
2023-03-05T16:01:01.169Z,24.40
2023-03-05T16:03:29.444Z,24.40
2023-03-05T16:05:57.885Z,24.40
2023-03-05T16:08:26.137Z,24.40
2023-03-05T16:10:54.447Z,24.40
2023-03-05T16:13:23.247Z,24.40
2023-03-05T16:15:54.018Z,24.40
2023-03-05T16:18:23.725Z,24.40
2023-03-05T16:20:52.935Z,24.40
2023-03-05T16:23:22.682Z,24.40
2023-03-05T16:25:51.323Z,24.40
2023-03-05T16:28:19.642Z,24.40
2023-03-05T16:30:57.651Z,24.40
2023-03-05T16:33:26.282Z,24.40
2023-03-05T16:36:23.163Z,24.40
2023-03-05T16:38:53.644Z,24.30
2023-03-05T16:41:24.403Z,24.40
2023-03-05T16:43:56.603Z,24.30
2023-03-05T16:46:29.407Z,24.40
2023-03-05T16:48:58.923Z,24.40
2023-03-05T16:51:27.340Z,24.40
2023-03-05T16:53:56.016Z,24.30
2023-03-05T16:56:24.551Z,24.40
2023-03-05T16:58:55.963Z,24.40
2023-03-05T17:01:24.828Z,24.30
2023-03-05T17:03:54.077Z,24.30
2023-03-05T17:06:25.561Z,24.30
2023-03-05T17:08:55.005Z,24.40
2023-03-05T17:11:23.345Z,24.30
2023-03-05T17:13:52.052Z,24.30
2023-03-05T17:16:20.606Z,24.40
2023-03-05T17:18:49.411Z,24.40
2023-03-05T17:21:17.728Z,24.30
2023-03-05T17:23:45.964Z,24.30
2023-03-05T17:26:18.064Z,24.30
2023-03-05T17:28:47.321Z,24.30
2023-03-05T17:31:15.955Z,24.30
2023-03-05T17:33:44.522Z,24.30
2023-03-05T17:36:18.612Z,24.30
2023-03-05T17:38:48.122Z,24.30
2023-03-05T17:41:19.081Z,24.30
2023-03-05T17:43:47.880Z,24.30
2023-03-05T17:46:17.163Z,24.30
2023-03-05T17:48:45.740Z,24.30
2023-03-05T17:51:16.926Z,24.30
2023-03-05T17:53:45.639Z,24.30
2023-03-05T17:56:20.599Z,24.30
2023-03-05T17:58:50.126Z,24.30
2023-03-05T18:01:26.380Z,24.30
2023-03-05T18:03:55.423Z,24.30
2023-03-05T18:06:24.362Z,24.30
2023-03-05T18:08:52.926Z,24.30
2023-03-05T18:11:21.810Z,24.30
2023-03-05T18:13:50.374Z,24.30
2023-03-05T18:16:18.802Z,24.30
2023-03-05T18:18:47.001Z,24.30
2023-03-05T18:21:21.098Z,24.30
2023-03-05T18:23:50.281Z,24.30
2023-03-05T18:26:18.781Z,24.30
2023-03-05T18:28:47.400Z,24.30
2023-03-05T18:31:15.679Z,24.30
2023-03-05T18:33:44.279Z,24.30
2023-03-05T18:36:12.840Z,24.30
2023-03-05T18:38:41.197Z,24.30
2023-03-05T18:41:09.799Z,24.30
2023-03-05T18:43:38.610Z,24.30
2023-03-05T18:46:08.499Z,24.30
2023-03-05T18:48:36.841Z,24.30
2023-03-05T18:51:05.637Z,24.30
2023-03-05T18:53:34.040Z,24.30
2023-03-05T18:56:02.517Z,24.30
2023-03-05T18:58:30.758Z,24.30
2023-03-05T19:00:58.862Z,24.20
2023-03-05T19:03:26.755Z,24.30
2023-03-05T19:05:55.022Z,24.30
2023-03-05T19:08:23.081Z,24.30
2023-03-05T19:10:51.815Z,24.30
2023-03-05T19:13:40.199Z,24.30
2023-03-05T19:16:22.213Z,24.30
2023-03-05T19:19:05.740Z,24.30
2023-03-05T19:21:34.146Z,24.30
2023-03-05T19:24:02.543Z,24.30
2023-03-05T19:26:30.933Z,24.30
2023-03-05T19:28:59.334Z,24.30
2023-03-05T19:31:27.605Z,24.30
2023-03-05T19:33:56.303Z,24.30
2023-03-05T19:36:24.777Z,24.30
2023-03-05T19:38:53.010Z,24.30
2023-03-05T19:41:21.842Z,24.30
2023-03-05T19:43:50.445Z,24.30
2023-03-05T19:46:19.057Z,24.30
2023-03-05T19:48:47.671Z,24.30
2023-03-05T19:51:19.495Z,24.30
2023-03-05T19:53:48.197Z,24.30
2023-03-05T19:56:17.264Z,24.30
2023-03-05T19:58:46.706Z,24.30
2023-03-05T20:01:18.326Z,24.30
2023-03-05T20:03:54.515Z,24.30
2023-03-05T20:06:24.676Z,24.30
2023-03-05T20:08:53.148Z,24.30
2023-03-05T20:11:22.590Z,24.30
2023-03-05T20:13:51.142Z,24.30
2023-03-05T20:16:22.147Z,24.30
2023-03-05T20:18:55.019Z,24.30
2023-03-05T20:21:25.723Z,24.30
2023-03-05T20:23:56.842Z,24.30
2023-03-05T20:26:27.012Z,24.30
2023-03-05T20:28:57.318Z,24.30
2023-03-05T20:31:27.287Z,24.30
2023-03-05T20:33:56.780Z,24.30
2023-03-05T20:36:25.126Z,24.30
2023-03-05T20:38:53.027Z,24.30
2023-03-05T20:41:21.213Z,24.30
2023-03-05T20:43:51.330Z,24.30
2023-03-05T20:46:24.149Z,24.30
2023-03-05T20:48:54.771Z,24.30
2023-03-05T20:51:29.522Z,24.30
2023-03-05T20:54:04.139Z,24.30
2023-03-05T20:56:33.991Z,24.30
2023-03-05T20:59:04.780Z,24.30
2023-03-05T21:01:35.106Z,24.30
2023-03-05T21:04:04.062Z,24.30
2023-03-05T21:06:32.700Z,24.30
2023-03-05T21:09:01.072Z,24.30
2023-03-05T21:11:28.917Z,24.30
2023-03-05T21:13:56.788Z,24.30
2023-03-05T21:16:27.948Z,24.30
2023-03-05T21:18:57.406Z,24.30
2023-03-05T21:21:25.768Z,24.30
2023-03-05T21:23:53.725Z,24.30
2023-03-05T21:26:22.113Z,24.30
2023-03-05T21:28:49.951Z,24.30
2023-03-05T21:31:22.520Z,24.30
2023-03-05T21:33:50.401Z,24.30
2023-03-05T21:36:19.033Z,24.30
2023-03-05T21:38:48.151Z,24.30
2023-03-05T21:41:18.352Z,24.30
2023-03-05T21:43:46.434Z,24.30
2023-03-05T21:46:14.531Z,24.30
2023-03-05T21:48:42.348Z,24.30
2023-03-05T21:51:12.840Z,24.30
2023-03-05T21:53:43.626Z,24.30
2023-03-05T21:56:18.136Z,24.30
2023-03-05T21:58:47.269Z,24.30
2023-03-05T22:01:16.361Z,24.30
2023-03-05T22:03:44.666Z,24.30
2023-03-05T22:06:14.541Z,24.30
2023-03-05T22:08:43.032Z,24.30
2023-03-05T22:11:17.166Z,24.30
2023-03-05T22:13:45.202Z,24.30
2023-03-05T22:16:22.171Z,24.30
2023-03-05T22:18:50.143Z,24.30
2023-03-05T22:21:25.328Z,24.30
2023-03-05T22:23:54.479Z,24.20
2023-03-05T22:26:23.172Z,24.20
2023-03-05T22:28:50.992Z,24.30
2023-03-05T22:31:26.142Z,24.30
2023-03-05T22:33:54.030Z,24.30
2023-03-05T22:36:22.200Z,24.20
2023-03-05T22:38:50.076Z,24.30
2023-03-05T22:41:22.716Z,24.20
2023-03-05T22:43:51.182Z,24.20
2023-03-05T22:46:24.576Z,24.20
2023-03-05T22:48:53.190Z,24.20
2023-03-05T22:51:21.174Z,24.20
2023-03-05T22:53:49.249Z,24.20
2023-03-05T22:56:19.418Z,24.20
2023-03-05T22:58:47.688Z,24.20
2023-03-05T23:01:21.335Z,24.20
2023-03-05T23:03:55.081Z,24.20
2023-03-05T23:06:25.475Z,24.20
2023-03-05T23:08:53.308Z,24.20
2023-03-05T23:11:21.489Z,24.20
2023-03-05T23:13:49.240Z,24.20
2023-03-05T23:16:17.074Z,24.20
2023-03-05T23:18:44.778Z,24.20
2023-03-05T23:21:12.615Z,24.20
2023-03-05T23:23:40.467Z,24.20
2023-03-05T23:26:08.339Z,24.10
2023-03-05T23:28:36.054Z,24.20
2023-03-05T23:31:04.456Z,24.10
2023-03-05T23:33:32.348Z,24.10
2023-03-05T23:36:01.122Z,24.10
2023-03-05T23:38:30.584Z,24.20
2023-03-05T23:41:01.449Z,24.20
2023-03-05T23:43:30.513Z,24.10
2023-03-05T23:46:00.522Z,24.10
2023-03-05T23:48:30.073Z,24.10
2023-03-05T23:50:57.972Z,24.20
2023-03-05T23:53:29.331Z,24.10
2023-03-05T23:55:57.335Z,24.10
2023-03-05T23:58:25.509Z,24.10
